createdAt,value
2018-12-24T00:02:38.066Z,12.53
2018-12-24T00:06:53.205Z,12.61
2018-12-24T00:10:59.041Z,12.61
2018-12-24T00:15:06.647Z,12.55
2018-12-24T00:19:12.637Z,12.60
2018-12-24T00:23:18.582Z,12.64
2018-12-24T00:27:24.560Z,12.65
2018-12-24T00:31:30.459Z,12.59
2018-12-24T00:37:03.218Z,12.61
2018-12-24T00:41:20.773Z,12.53
2018-12-24T00:45:57.693Z,12.57
2018-12-24T00:50:15.970Z,12.70
2018-12-24T00:55:00.323Z,12.62
2018-12-24T00:59:18.058Z,12.56
2018-12-24T01:04:02.529Z,12.58
2018-12-24T01:08:18.429Z,12.59
2018-12-24T01:17:11.547Z,12.57
2018-12-24T01:21:27.576Z,12.57
2018-12-24T01:25:52.615Z,12.53
2018-12-24T01:30:11.276Z,12.54
2018-12-24T01:34:55.630Z,12.55
2018-12-24T01:39:13.305Z,12.50
2018-12-24T01:43:38.384Z,12.54
2018-12-24T01:47:56.652Z,12.46
2018-12-24T01:52:14.372Z,12.47
2018-12-24T02:01:15.906Z,12.67
2018-12-24T02:05:33.499Z,12.66
2018-12-24T02:09:58.544Z,12.73
2018-12-24T02:14:16.452Z,12.77
2018-12-24T02:18:41.513Z,12.78
2018-12-24T02:22:59.594Z,13.01
2018-12-24T02:27:24.751Z,13.20
2018-12-24T02:31:48.561Z,12.70
2018-12-24T02:36:13.656Z,12.26
2018-12-24T02:40:50.438Z,12.18
2018-12-24T02:45:08.664Z,12.08
2018-12-24T02:49:48.645Z,11.97
2018-12-24T02:54:06.494Z,11.92
2018-12-24T02:58:50.880Z,11.93
2018-12-24T03:03:08.948Z,11.87
2018-12-24T03:07:34.000Z,11.97
2018-12-24T03:11:52.322Z,12.00
2018-12-24T03:16:08.262Z,11.83
2018-12-24T03:25:09.739Z,11.79
2018-12-24T03:29:49.291Z,11.67
2018-12-24T03:34:14.335Z,11.59
2018-12-24T03:38:51.579Z,11.49
2018-12-24T03:43:16.663Z,11.49
2018-12-24T03:47:53.598Z,11.53
2018-12-24T03:52:18.668Z,11.37
2018-12-24T03:56:55.917Z,11.23
2018-12-24T04:05:57.192Z,10.97
2018-12-24T04:10:15.038Z,10.97
2018-12-24T04:14:40.081Z,11.08
2018-12-24T04:18:58.174Z,11.03
2018-12-24T04:23:23.214Z,11.05
2018-12-24T04:28:00.591Z,11.05
2018-12-24T04:33:04.195Z,11.17
2018-12-24T04:37:22.438Z,11.22
2018-12-24T04:41:59.679Z,11.15
2018-12-24T04:46:17.197Z,10.98
2018-12-24T04:50:34.708Z,10.91
2018-12-24T04:54:59.753Z,10.91
2018-12-24T04:59:17.509Z,10.88
2018-12-24T05:04:01.879Z,10.84
2018-12-24T05:08:19.847Z,10.64
2018-12-24T05:12:56.608Z,10.49
2018-12-24T05:17:02.311Z,10.70
2018-12-24T05:21:08.018Z,10.67
2018-12-24T05:25:13.730Z,10.78
2018-12-24T05:29:19.391Z,10.73
2018-12-24T05:33:26.059Z,10.61
2018-12-24T05:37:31.759Z,10.44
2018-12-24T05:41:37.463Z,10.40
2018-12-24T05:45:43.160Z,10.51
2018-12-24T05:49:51.799Z,10.37
2018-12-24T05:53:57.600Z,10.40
2018-12-24T05:58:03.347Z,10.49
2018-12-24T06:02:09.055Z,10.53
2018-12-24T06:06:14.760Z,10.60
2018-12-24T06:10:20.447Z,10.57
2018-12-24T06:14:26.141Z,10.54
2018-12-24T06:18:46.762Z,10.48
2018-12-24T06:22:52.468Z,10.51
2018-12-24T06:26:58.190Z,10.60
2018-12-24T06:31:03.950Z,10.58
2018-12-24T06:35:09.661Z,10.52
2018-12-24T06:39:15.527Z,10.59
2018-12-24T06:43:21.229Z,10.51
2018-12-24T07:08:51.116Z,10.58
2018-12-24T07:18:52.355Z,10.48
2018-12-24T07:22:58.051Z,10.54
2018-12-24T07:27:03.763Z,10.50
2018-12-24T07:31:09.458Z,10.47
2018-12-24T07:35:15.184Z,10.50
2018-12-24T07:39:51.013Z,10.53
2018-12-24T07:43:56.712Z,10.48
2018-12-24T07:48:02.416Z,10.38
2018-12-24T07:52:08.125Z,10.40
2018-12-24T07:56:13.827Z,10.36
2018-12-24T08:00:19.516Z,10.38
2018-12-24T08:04:25.215Z,10.45
2018-12-24T08:08:30.917Z,10.48
2018-12-24T08:12:51.787Z,10.51
2018-12-24T08:16:57.498Z,10.42
2018-12-24T08:21:03.225Z,10.46
2018-12-24T08:25:08.931Z,10.49
2018-12-24T08:33:53.008Z,10.49
2018-12-24T08:37:58.807Z,10.50
2018-12-24T08:42:49.568Z,10.44
2018-12-24T08:46:55.287Z,10.53
2018-12-24T08:51:49.087Z,10.48
2018-12-24T08:55:54.821Z,10.58
2018-12-24T09:00:48.703Z,10.54
2018-12-24T09:04:54.414Z,10.53
2018-12-24T09:09:51.277Z,10.54
2018-12-24T09:13:56.975Z,10.59
2018-12-24T09:18:02.668Z,10.33
2018-12-24T09:22:08.374Z,10.26
2018-12-24T09:26:14.087Z,10.35
2018-12-24T09:30:50.007Z,10.30
2018-12-24T09:34:55.674Z,10.40
2018-12-24T09:39:49.181Z,10.65
2018-12-24T09:43:54.891Z,10.60
2018-12-24T09:48:00.602Z,10.66
2018-12-24T09:52:06.309Z,10.47
2018-12-24T09:56:12.563Z,10.55
2018-12-24T10:00:51.423Z,10.50
2018-12-24T10:04:57.130Z,10.44
2018-12-24T10:09:51.007Z,10.43
2018-12-24T10:13:56.717Z,10.51
2018-12-24T10:18:02.419Z,10.63
2018-12-24T10:22:08.110Z,10.52
2018-12-24T10:26:13.811Z,10.60
2018-12-24T10:30:49.601Z,10.68
2018-12-24T10:34:55.302Z,10.77
2018-12-24T10:43:50.848Z,10.94
2018-12-24T10:47:56.538Z,11.06
2018-12-24T10:52:02.236Z,11.11
2018-12-24T10:56:07.939Z,10.98
2018-12-24T11:00:13.661Z,10.89
2018-12-24T11:38:51.214Z,10.74
2018-12-24T12:05:51.351Z,10.92
2018-12-24T12:15:52.694Z,10.71
2018-12-24T12:20:52.659Z,10.80
2018-12-24T12:24:56.651Z,10.88
2018-12-24T12:29:50.525Z,10.78
2018-12-24T12:33:56.201Z,10.69
2018-12-24T12:38:49.874Z,10.84
2018-12-24T12:42:55.585Z,10.77
2018-12-24T12:47:49.020Z,10.67
2018-12-24T12:51:54.714Z,10.45
2018-12-24T13:00:53.388Z,10.35
2018-12-24T13:04:59.071Z,10.35
2018-12-24T13:09:49.488Z,10.38
2018-12-24T13:13:55.260Z,10.47
2018-12-24T13:18:00.959Z,10.40
2018-12-24T13:22:06.655Z,10.46
2018-12-24T13:26:12.353Z,10.43
2018-12-24T13:30:18.069Z,10.30
2018-12-24T13:34:23.774Z,10.29
2018-12-24T13:38:29.475Z,10.51
2018-12-24T13:42:35.168Z,10.52
2018-12-24T13:46:40.856Z,10.31
2018-12-24T13:50:46.547Z,10.14
2018-12-24T13:54:52.246Z,10.10
2018-12-24T13:58:57.961Z,9.91
2018-12-24T14:03:03.670Z,9.82
2018-12-24T14:07:47.834Z,9.83
2018-12-24T14:11:53.525Z,9.80
2018-12-24T14:15:59.225Z,9.74
2018-12-24T14:20:06.148Z,9.77
2018-12-24T14:24:50.685Z,9.94
2018-12-24T14:28:56.385Z,10.10
2018-12-24T14:33:02.111Z,10.29
2018-12-24T14:37:07.800Z,10.28
2018-12-24T14:45:51.882Z,10.16
2018-12-24T14:49:57.568Z,9.89
2018-12-24T14:54:03.277Z,9.74
2018-12-24T14:58:08.956Z,9.72
2018-12-24T15:02:14.722Z,9.61
2018-12-24T15:06:20.410Z,9.55
2018-12-24T15:10:26.111Z,9.55
2018-12-24T15:14:31.981Z,9.69
2018-12-24T15:24:52.542Z,9.96
2018-12-24T15:29:49.412Z,9.85
2018-12-24T15:33:55.152Z,9.83
2018-12-24T15:38:48.943Z,9.60
2018-12-24T15:42:54.707Z,9.45
2018-12-24T15:51:50.426Z,9.74
2018-12-24T15:56:46.723Z,9.74
2018-12-24T16:00:52.418Z,9.83
2018-12-24T16:05:48.983Z,9.95
2018-12-24T16:09:54.667Z,9.96
2018-12-24T16:14:48.628Z,10.14
2018-12-24T16:18:54.291Z,10.26
2018-12-24T16:23:00.015Z,10.13
2018-12-24T16:27:50.409Z,10.09
2018-12-24T16:31:56.118Z,10.12
2018-12-24T16:36:01.829Z,10.04
2018-12-24T16:40:07.524Z,9.99
2018-12-24T16:44:49.383Z,9.90
2018-12-24T16:48:55.078Z,9.59
2018-12-24T16:53:00.764Z,9.27
2018-12-24T16:57:06.454Z,9.14
2018-12-24T17:01:12.143Z,9.14
2018-12-24T17:05:17.847Z,9.12
2018-12-24T17:09:23.921Z,9.00
2018-12-24T17:13:49.904Z,9.11
2018-12-24T17:17:55.627Z,9.46
2018-12-24T17:22:01.393Z,9.69
2018-12-24T17:26:07.063Z,9.93
2018-12-24T17:30:13.768Z,10.00
2018-12-24T17:34:49.224Z,10.01
2018-12-24T17:38:55.020Z,9.94
2018-12-24T17:43:00.718Z,9.79
2018-12-24T17:47:06.405Z,9.79
2018-12-24T17:51:12.110Z,9.97
2018-12-24T17:55:17.857Z,9.91
2018-12-24T17:59:23.569Z,9.85
2018-12-24T18:03:29.236Z,9.89
2018-12-24T18:07:34.948Z,9.88
2018-12-24T18:11:40.652Z,9.76
2018-12-24T18:15:46.343Z,9.89
2018-12-24T18:19:52.037Z,9.95
2018-12-24T18:23:57.743Z,9.92
2018-12-24T18:28:03.420Z,9.92
2018-12-24T18:32:09.105Z,9.91
2018-12-24T18:36:14.809Z,9.99
2018-12-24T18:40:20.504Z,9.94
2018-12-24T18:44:26.175Z,9.68
2018-12-24T18:48:31.861Z,9.47
2018-12-24T18:52:37.687Z,9.31
2018-12-24T18:56:43.378Z,9.24
2018-12-24T19:00:49.081Z,9.17
2018-12-24T19:04:55.559Z,9.17
2018-12-24T19:09:01.251Z,9.16
2018-12-24T19:13:08.795Z,9.17
2018-12-24T19:17:14.485Z,9.12
2018-12-24T19:21:20.149Z,9.03
2018-12-24T19:25:25.857Z,9.02
2018-12-24T19:29:31.546Z,8.93
2018-12-24T19:50:51.343Z,8.64
2018-12-24T19:55:50.618Z,8.61
2018-12-24T19:59:56.300Z,8.81
2018-12-24T20:04:02.022Z,8.93
2018-12-24T20:08:49.480Z,8.98
2018-12-24T20:12:56.236Z,8.80
2018-12-24T20:17:02.025Z,8.61
2018-12-24T20:21:07.714Z,8.51
2018-12-24T20:25:13.397Z,8.39
2018-12-24T20:29:52.009Z,8.30
2018-12-24T20:33:57.688Z,8.23
2018-12-24T20:38:03.406Z,8.17
2018-12-24T20:42:09.090Z,8.17
2018-12-24T20:46:14.777Z,8.11
2018-12-24T20:50:50.321Z,8.26
2018-12-24T20:54:55.988Z,8.42
2018-12-24T20:59:01.744Z,8.49
2018-12-24T21:03:07.438Z,8.52
2018-12-24T21:07:13.138Z,8.63
2018-12-24T21:11:51.977Z,8.52
2018-12-24T21:15:57.669Z,8.65
2018-12-24T21:24:50.725Z,8.31
2018-12-24T21:28:56.410Z,8.24
2018-12-24T21:33:02.116Z,8.17
2018-12-24T21:37:07.812Z,8.17
2018-12-24T21:41:49.236Z,8.09
2018-12-24T21:45:54.996Z,8.30
2018-12-24T21:50:00.695Z,8.45
2018-12-24T21:54:06.377Z,8.55
2018-12-24T21:58:12.059Z,8.44
2018-12-24T22:02:50.509Z,8.44
2018-12-24T22:06:56.211Z,8.56
2018-12-24T22:11:01.971Z,8.65
2018-12-24T22:15:07.657Z,8.68
2018-12-24T22:19:13.344Z,8.49
2018-12-24T22:23:19.076Z,8.00
2018-12-24T22:27:24.761Z,8.05
2018-12-24T22:31:30.447Z,8.37
2018-12-24T22:35:51.438Z,8.38
2018-12-24T22:39:57.154Z,7.92
2018-12-24T22:44:02.882Z,7.62
2018-12-24T22:48:08.556Z,7.53
2018-12-24T22:52:14.265Z,7.32
2018-12-24T22:56:19.960Z,7.19
2018-12-24T23:00:27.337Z,7.02
2018-12-24T23:04:51.002Z,6.88
2018-12-24T23:08:57.190Z,6.93
2018-12-24T23:13:02.832Z,6.85
2018-12-24T23:17:08.518Z,6.85
2018-12-24T23:21:14.232Z,6.76
2018-12-24T23:25:19.994Z,6.77
2018-12-24T23:29:49.781Z,6.92
2018-12-24T23:33:55.519Z,6.84
2018-12-24T23:38:01.198Z,6.60
2018-12-24T23:42:06.882Z,6.52
2018-12-24T23:46:12.654Z,6.56
2018-12-24T23:51:48.431Z,6.75
